Time;durP1;ratioP1;P1;durP2;ratioP2;P2;SDS_P1;SDS_P2;PMS_P1;PMS_P2;Temp;Humidity;BMP_temperature;BMP_pressure;BME280_temperature;BME280_humidity;BME280_pressure;Samples;Min_cycle;Max_cycle;Signal;HPM_P1;HPM_P2
2022/08/22 00:00:10;;;;;;;;;;;;;;;;;;1019615;28;3931;-50
2022/08/22 00:01:01;;;;;;;;;;;;;;;;;;1018662;28;4030;-54
2022/08/22 00:01:35;;;;;;;;;;;;;;;;;;1019861;28;4130;-49
2022/08/22 00:02:12;;;;;;;;;;;;;;;;;;1020347;28;3422;-55
2022/08/22 00:02:57;;;;;;;;;;;;;;;;;;1020998;28;4117;-52
2022/08/22 00:03:34;;;;;;;;;;;;;;;;;;1021598;28;4088;-55
2022/08/22 00:04:29;;;;;;;;;;;;;;;;;;1021612;28;3786;-51
2022/08/22 00:05:07;;;;;;;;;;;;;;;;;;1021177;28;4051;-50
2022/08/22 00:05:50;;;;;;;;;;;;;;;;;;1025154;28;3932;-53
2022/08/22 00:06:38;;;;;;;;;;;;;;;;;;1020684;28;3958;-49
2022/08/22 00:07:17;;;;;;;;;;;;;;;;;;1021801;28;3793;-51
2022/08/22 00:07:48;;;;;;;;;;;;;;;;;;1015559;29;3869;-54
2022/08/22 00:08:29;;;;;;;;;;;;;;;;;;1020836;28;1608;-50
2022/08/22 00:09:09;;;;;;;;;;;;;;;;;;1018658;28;4015;-53
2022/08/22 00:09:43;;;;;;;;;;;;;;;;;;1020770;28;4229;-54
2022/08/22 00:10:26;;;;;;;;;;;;;;;;;;1018613;28;3556;-55
2022/08/22 00:10:56;;;;;;;;;;;;;;;;;;1018691;29;4165;-53
2022/08/22 00:11:34;;;;;;;;;;;;;;;;;;1014838;29;4194;-57
2022/08/22 00:12:05;;;;;;;;;;;;;;;;;;1020668;28;3965;-53
2022/08/22 00:12:58;;;;;;;;;;;;;;;;;;1021701;28;4135;-55
2022/08/22 00:13:32;;;;;;;;;;;;;;;;;;1018299;28;4300;-52
2022/08/22 00:14:12;;;;;;;;;;;;;;;;;;1018602;28;3953;-57
2022/08/22 00:14:49;;;;;;;;;;;;;;;;;;1018584;28;3909;-54
2022/08/22 00:15:24;;;;;;;;;;;;;;;;;;1020165;28;3238;-52
2022/08/22 00:15:57;;;;;;;;;;;;;;;;;;1018369;28;3882;-49
2022/08/22 00:16:27;;;;;;;;;;;;;;;;;;1019682;28;4054;-54
2022/08/22 00:16:58;;;;;;;;;;;;;;;;;;1020955;28;3750;-55
2022/08/22 00:17:28;;;;;;;;;;;;;;;;;;1022439;28;3892;-54
2022/08/22 00:18:09;;;;;;;;;;;;;;;;;;1021810;28;3874;-51
2022/08/22 00:18:45;;;;;;;;;;;;;;;;;;1021318;28;4099;-53
2022/08/22 00:19:30;;;;;;;;;;;;;;;;;;1019610;28;4144;-54
2022/08/22 00:20:33;;;;;;;;;;;;;;;;;;1019104;28;4158;-54
2022/08/22 00:21:10;;;;;;;;;;;;;;;;;;1019994;28;3894;-56
2022/08/22 00:21:43;;;;;;;;;;;;;;;;;;1020213;28;4049;-51
2022/08/22 00:22:18;;;;;;;;;;;;;;;;;;1021183;28;3322;-51
2022/08/22 00:22:50;;;;;;;;;;;;;;;;;;1015813;29;3972;-52
2022/08/22 00:23:26;;;;;;;;;;;;;;;;;;1018711;28;3978;-52
2022/08/22 00:24:08;;;;;;;;;;;;;;;;;;1018186;28;3739;-51
2022/08/22 00:24:54;;;;;;;;;;;;;;;;;;1020185;28;3925;-53
2022/08/22 00:25:29;;;;;;;;;;;;;;;;;;1021453;28;3906;-54
2022/08/22 00:26:08;;;;;;;;;;;;;;;;;;1019837;28;3583;-53
2022/08/22 00:26:41;;;;;;;;;;;;;;;;;;1016434;28;3827;-50
2022/08/22 00:27:14;;;;;;;;;;;;;;;;;;1020656;28;3967;-53
2022/08/22 00:27:51;;;;;;;;;;;;;;;;;;1019713;28;4282;-52
2022/08/22 00:28:27;;;;;;;;;;;;;;;;;;1016858;29;4357;-54
2022/08/22 00:29:05;;;;;;;;;;;;;;;;;;1014363;29;4022;-53
2022/08/22 00:30:14;;;;;;;;;;;;;;;;;;1010715;29;4080;-55
2022/08/22 00:30:53;;;;;;;;;;;;;;;;;;1008063;29;4086;-52
2022/08/22 00:31:27;;;;;;;;;;;;;;;;;;1009960;29;4021;-51
2022/08/22 00:32:05;;;;;;;;;;;;;;;;;;1012354;29;3078;-54
2022/08/22 00:32:39;;;;;;;;;;;;;;;;;;1010881;29;3938;-55
2022/08/22 00:33:17;;;;;;;;;;;;;;;;;;1008593;29;3806;-52
2022/08/22 00:33:50;;;;;;;;;;;;;;;;;;1009013;29;4043;-54
2022/08/22 00:34:33;;;;;;;;;;;;;;;;;;1006744;29;4017;-51
2022/08/22 00:35:09;;;;;;;;;;;;;;;;;;1014477;29;3535;-52
2022/08/22 00:35:42;;;;;;;;;;;;;;;;;;1015842;29;4007;-54
2022/08/22 00:36:13;;;;;;;;;;;;;;;;;;1016504;29;1626;-52
2022/08/22 00:37:19;;;;;;;;;;;;;;;;;;1019462;28;4050;-56
2022/08/22 00:37:59;;;;;;;;;;;;;;;;;;1016033;29;4248;-50
2022/08/22 00:38:32;;;;;;;;;;;;;;;;;;1015560;29;4237;-52
2022/08/22 00:39:09;;;;;;;;;;;;;;;;;;1015816;29;3966;-54
2022/08/22 00:39:43;;;;;;;;;;;;;;;;;;1015894;29;3831;-57
2022/08/22 00:40:13;;;;;;;;;;;;;;;;;;1016238;29;3561;-53
2022/08/22 00:41:09;;;;;;;;;;;;;;;;;;1020958;28;3913;-52
2022/08/22 00:41:54;;;;;;;;;;;;;;;;;;1020022;28;4002;-55
2022/08/22 00:42:39;;;;;;;;;;;;;;;;;;1020614;28;4098;-47
2022/08/22 00:43:27;;;;;;;;;;;;;;;;;;1020970;28;2855;-51
2022/08/22 00:44:30;;;;;;;;;;;;;;;;;;1021362;28;4018;-55
2022/08/22 00:45:20;;;;;;;;;;;;;;;;;;1012312;29;3876;-53
2022/08/22 00:45:56;;;;;;;;;;;;;;;;;;1017401;28;3836;-52
2022/08/22 00:46:42;;;;;;;;;;;;;;;;;;1021011;28;4277;-51
2022/08/22 00:47:32;;;;;;;;;;;;;;;;;;1021526;28;3863;-50
2022/08/22 00:48:11;;;;;;;;;;;;;;;;;;1020800;28;3931;-55
2022/08/22 00:48:47;;;;;;;;;;;;;;;;;;1018530;28;4074;-48
2022/08/22 00:49:40;;;;;;;;;;;;;;;;;;1021329;28;4099;-51
2022/08/22 00:50:33;;;;;;;;;;;;;;;;;;1018038;28;4229;-54
2022/08/22 00:51:21;;;;;;;;;;;;;;;;;;1021797;28;3860;-50
2022/08/22 00:52:03;;;;;;;;;;;;;;;;;;1018094;28;3941;-55
2022/08/22 00:52:57;;;;;;;;;;;;;;;;;;1020887;28;4439;-55
2022/08/22 00:53:49;;;;;;;;;;;;;;;;;;1013539;28;4095;-55
2022/08/22 00:54:40;;;;;;;;;;;;;;;;;;1019703;28;3080;-50
2022/08/22 00:55:24;;;;;;;;;;;;;;;;;;1017326;28;3938;-51
2022/08/22 00:56:13;;;;;;;;;;;;;;;;;;1019687;28;3851;-49
2022/08/22 00:56:49;;;;;;;;;;;;;;;;;;1019316;28;4040;-50
2022/08/22 00:57:22;;;;;;;;;;;;;;;;;;1022010;28;1620;-49
2022/08/22 00:58:11;;;;;;;;;;;;;;;;;;1020544;28;3859;-52
2022/08/22 00:58:51;;;;;;;;;;;;;;;;;;1019282;28;4025;-55
2022/08/22 00:59:39;;;;;;;;;;;;;;;;;;1020951;28;4089;-49
2022/08/22 01:00:12;;;;;;;;;;;;;;;;;;1019970;28;3908;-52
2022/08/22 01:00:54;;;;;;;;;;;;;;;;;;1020582;28;3943;-53
2022/08/22 01:01:29;;;;;;;;;;;;;;;;;;1019744;28;4010;-51
2022/08/22 01:02:09;;;;;;;;;;;;;;;;;;1018219;28;4017;-53
2022/08/22 01:03:06;;;;;;;;;;;;;;;;;;1020412;28;4103;-52
2022/08/22 01:03:48;;;;;;;;;;;;;;;;;;1019905;28;3943;-52
2022/08/22 01:04:27;;;;;;;;;;;;;;;;;;1020577;28;2674;-52
2022/08/22 01:05:12;;;;;;;;;;;;;;;;;;1020173;28;4002;-56
2022/08/22 01:05:44;;;;;;;;;;;;;;;;;;1023501;28;4283;-53
2022/08/22 01:06:33;;;;;;;;;;;;;;;;;;1020715;28;4495;-54
2022/08/22 01:07:12;;;;;;;;;;;;;;;;;;1017730;28;3846;-51
2022/08/22 01:07:49;;;;;;;;;;;;;;;;;;1019584;28;4204;-54
2022/08/22 01:08:20;;;;;;;;;;;;;;;;;;1021146;28;1766;-54
2022/08/22 01:09:03;;;;;;;;;;;;;;;;;;1019800;28;3981;-52
2022/08/22 01:09:40;;;;;;;;;;;;;;;;;;1020348;28;3965;-51
2022/08/22 01:10:20;;;;;;;;;;;;;;;;;;1021247;28;3609;-56
2022/08/22 01:10:50;;;;;;;;;;;;;;;;;;1019292;28;3747;-53
2022/08/22 01:11:21;;;;;;;;;;;;;;;;;;1019307;28;3943;-48
2022/08/22 01:12:07;;;;;;;;;;;;;;;;;;1019402;28;3977;-52
2022/08/22 01:12:56;;;;;;;;;;;;;;;;;;1019223;28;4113;-53
2022/08/22 01:13:29;;;;;;;;;;;;;;;;;;1019180;28;3873;-55
2022/08/22 01:14:06;;;;;;;;;;;;;;;;;;1020239;28;3565;-51
2022/08/22 01:14:54;;;;;;;;;;;;;;;;;;1018991;28;4071;-50
2022/08/22 01:15:26;;;;;;;;;;;;;;;;;;1021860;28;3933;-54
2022/08/22 01:16:09;;;;;;;;;;;;;;;;;;1019596;28;3572;-52
2022/08/22 01:16:42;;;;;;;;;;;;;;;;;;1020920;28;3953;-53
2022/08/22 01:17:18;;;;;;;;;;;;;;;;;;1022811;28;3872;-54
2022/08/22 01:18:10;;;;;;;;;;;;;;;;;;1019135;28;3831;-54
2022/08/22 01:18:54;;;;;;;;;;;;;;;;;;1019856;28;3893;-50
2022/08/22 01:19:39;;;;;;;;;;;;;;;;;;1018067;28;5619;-50
2022/08/22 01:20:28;;;;;;;;;;;;;;;;;;1020505;28;3518;-49
2022/08/22 01:21:24;;;;;;;;;;;;;;;;;;1021109;28;3952;-50
2022/08/22 01:22:13;;;;;;;;;;;;;;;;;;1019222;28;3578;-50
2022/08/22 01:23:02;;;;;;;;;;;;;;;;;;1020921;28;4080;-54
2022/08/22 01:23:51;;;;;;;;;;;;;;;;;;1022398;28;3926;-50
2022/08/22 01:25:16;;;;;;;;;;;;;;;;;;1021627;28;3948;-52
2022/08/22 01:25:30;;;;;;;;;;;;;;;;;;1021270;28;4072;-51
2022/08/22 01:26:20;;;;;;;;;;;;;;;;;;1021987;28;3733;-53
2022/08/22 01:27:09;;;;;;;;;;;;;;;;;;1020886;28;3647;-51
2022/08/22 01:27:56;;;;;;;;;;;;;;;;;;1021016;28;4404;-52
2022/08/22 01:28:37;;;;;;;;;;;;;;;;;;1020338;28;3953;-56
2022/08/22 01:29:20;;;;;;;;;;;;;;;;;;1021135;28;3623;-54
2022/08/22 01:30:11;;;;;;;;;;;;;;;;;;1019550;28;4958;-52
2022/08/22 01:30:59;;;;;;;;;;;;;;;;;;1021599;28;4013;-54
2022/08/22 01:31:44;;;;;;;;;;;;;;;;;;1021229;28;4106;-52
2022/08/22 01:32:14;;;;;;;;;;;;;;;;;;1022411;28;2564;-53
2022/08/22 01:32:46;;;;;;;;;;;;;;;;;;1020098;28;4068;-48
2022/08/22 01:33:22;;;;;;;;;;;;;;;;;;1021615;28;3317;-49
2022/08/22 01:34:22;;;;;;;;;;;;;;;;;;1019816;28;3905;-54
2022/08/22 01:34:52;;;;;;;;;;;;;;;;;;1024711;28;4166;-53
2022/08/22 01:35:28;;;;;;;;;;;;;;;;;;1024100;28;4145;-56
2022/08/22 01:36:19;;;;;;;;;;;;;;;;;;1024033;28;3881;-51
2022/08/22 01:37:03;;;;;;;;;;;;;;;;;;1018772;29;3891;-53
2022/08/22 01:37:52;;;;;;;;;;;;;;;;;;1021400;28;3905;-53
2022/08/22 01:38:22;;;;;;;;;;;;;;;;;;1020674;28;5650;-54
2022/08/22 01:38:58;;;;;;;;;;;;;;;;;;1021703;28;3283;-54
2022/08/22 01:39:28;;;;;;;;;;;;;;;;;;1021928;28;3921;-53
2022/08/22 01:40:17;;;;;;;;;;;;;;;;;;1021236;28;3732;-52
2022/08/22 01:41:06;;;;;;;;;;;;;;;;;;1020163;28;3984;-52
2022/08/22 01:41:58;;;;;;;;;;;;;;;;;;1022066;28;3891;-56
2022/08/22 01:42:54;;;;;;;;;;;;;;;;;;1025851;28;3917;-47
2022/08/22 01:43:39;;;;;;;;;;;;;;;;;;1023524;28;4241;-53
2022/08/22 01:44:36;;;;;;;;;;;;;;;;;;1022034;28;3189;-54
2022/08/22 01:45:24;;;;;;;;;;;;;;;;;;1017304;28;3866;-52
2022/08/22 01:45:55;;;;;;;;;;;;;;;;;;1018314;28;4068;-54
2022/08/22 01:46:30;;;;;;;;;;;;;;;;;;1022389;28;3902;-51
2022/08/22 01:47:06;;;;;;;;;;;;;;;;;;1020598;28;3963;-57
2022/08/22 01:47:57;;;;;;;;;;;;;;;;;;1021152;28;4065;-51
2022/08/22 01:48:34;;;;;;;;;;;;;;;;;;1021197;28;4066;-52
2022/08/22 01:49:07;;;;;;;;;;;;;;;;;;1021200;28;3061;-50
2022/08/22 01:49:40;;;;;;;;;;;;;;;;;;1021428;28;4122;-54
2022/08/22 01:50:19;;;;;;;;;;;;;;;;;;1022659;28;1861;-53
2022/08/22 01:50:56;;;;;;;;;;;;;;;;;;1020421;28;3911;-52
2022/08/22 01:51:45;;;;;;;;;;;;;;;;;;1022478;28;3991;-49
2022/08/22 01:52:31;;;;;;;;;;;;;;;;;;1022792;28;3103;-52
2022/08/22 01:53:04;;;;;;;;;;;;;;;;;;1020532;28;3899;-51
2022/08/22 01:53:35;;;;;;;;;;;;;;;;;;1019555;28;4085;-54
2022/08/22 01:54:05;;;;;;;;;;;;;;;;;;1019739;28;3495;-53
2022/08/22 01:54:38;;;;;;;;;;;;;;;;;;1020914;28;4561;-55
2022/08/22 01:55:47;;;;;;;;;;;;;;;;;;1021214;28;3450;-53
2022/08/22 01:56:19;;;;;;;;;;;;;;;;;;1013777;29;4161;-53
2022/08/22 01:56:49;;;;;;;;;;;;;;;;;;1012723;29;3902;-50
2022/08/22 01:57:20;;;;;;;;;;;;;;;;;;1013616;29;3244;-54
2022/08/22 01:57:53;;;;;;;;;;;;;;;;;;1010320;29;4233;-52
2022/08/22 01:58:25;;;;;;;;;;;;;;;;;;1013635;29;4276;-51
2022/08/22 01:59:00;;;;;;;;;;;;;;;;;;1013948;29;3248;-49
2022/08/22 01:59:36;;;;;;;;;;;;;;;;;;1012497;29;4038;-51
2022/08/22 02:00:14;;;;;;;;;;;;;;;;;;1011848;29;3750;-54
2022/08/22 02:00:56;;;;;;;;;;;;;;;;;;1012498;29;3900;-54
2022/08/22 02:01:46;;;;;;;;;;;;;;;;;;1013427;29;4140;-53
2022/08/22 02:02:28;;;;;;;;;;;;;;;;;;1018645;28;3678;-51
2022/08/22 02:03:12;;;;;;;;;;;;;;;;;;1026156;28;3679;-53
2022/08/22 02:03:55;;;;;;;;;;;;;;;;;;1020162;28;5351;-52
2022/08/22 02:04:34;;;;;;;;;;;;;;;;;;1022722;28;3945;-52
2022/08/22 02:05:10;;;;;;;;;;;;;;;;;;1020689;28;2971;-49
2022/08/22 02:06:04;;;;;;;;;;;;;;;;;;1018996;28;4246;-53
2022/08/22 02:06:51;;;;;;;;;;;;;;;;;;1021264;28;3882;-50
2022/08/22 02:07:24;;;;;;;;;;;;;;;;;;1021874;28;3980;-48
2022/08/22 02:07:54;;;;;;;;;;;;;;;;;;1020229;28;3840;-53
2022/08/22 02:08:35;;;;;;;;;;;;;;;;;;1020800;28;3927;-49
2022/08/22 02:09:09;;;;;;;;;;;;;;;;;;1021368;28;3797;-54
2022/08/22 02:09:42;;;;;;;;;;;;;;;;;;1021093;28;4040;-48
2022/08/22 02:10:18;;;;;;;;;;;;;;;;;;1022447;28;3709;-52
2022/08/22 02:10:51;;;;;;;;;;;;;;;;;;1023370;28;3855;-51
2022/08/22 02:11:30;;;;;;;;;;;;;;;;;;1025569;28;4082;-50
2022/08/22 02:12:10;;;;;;;;;;;;;;;;;;1024818;28;3530;-54
2022/08/22 02:12:40;;;;;;;;;;;;;;;;;;1022187;28;4176;-50
2022/08/22 02:13:11;;;;;;;;;;;;;;;;;;1021357;28;2514;-54
2022/08/22 02:14:03;;;;;;;;;;;;;;;;;;1020372;28;3976;-53
2022/08/22 02:14:42;;;;;;;;;;;;;;;;;;1022800;28;4069;-49
2022/08/22 02:15:25;;;;;;;;;;;;;;;;;;1020483;28;3363;-54
2022/08/22 02:16:07;;;;;;;;;;;;;;;;;;1017416;28;3885;-53
2022/08/22 02:16:40;;;;;;;;;;;;;;;;;;1019360;28;3994;-53
2022/08/22 02:17:39;;;;;;;;;;;;;;;;;;1022393;28;1669;-53
2022/08/22 02:18:09;;;;;;;;;;;;;;;;;;1015460;29;3994;-51
2022/08/22 02:18:44;;;;;;;;;;;;;;;;;;1019848;28;4444;-51
2022/08/22 02:19:15;;;;;;;;;;;;;;;;;;1022080;28;3084;-54
2022/08/22 02:19:59;;;;;;;;;;;;;;;;;;1021527;28;3872;-50
2022/08/22 02:20:46;;;;;;;;;;;;;;;;;;1019261;28;4228;-52
2022/08/22 02:21:39;;;;;;;;;;;;;;;;;;1021704;28;4105;-53
2022/08/22 02:22:24;;;;;;;;;;;;;;;;;;1022653;28;3660;-53
2022/08/22 02:23:16;;;;;;;;;;;;;;;;;;1020348;28;3897;-51
2022/08/22 02:23:51;;;;;;;;;;;;;;;;;;1021099;28;4134;-53
2022/08/22 02:24:28;;;;;;;;;;;;;;;;;;1019989;28;3935;-55
2022/08/22 02:25:00;;;;;;;;;;;;;;;;;;1021085;28;3669;-51
2022/08/22 02:25:45;;;;;;;;;;;;;;;;;;1022138;28;4188;-52
2022/08/22 02:26:19;;;;;;;;;;;;;;;;;;1020132;28;3522;-49
2022/08/22 02:27:04;;;;;;;;;;;;;;;;;;1018922;28;3817;-52
2022/08/22 02:27:37;;;;;;;;;;;;;;;;;;1021468;28;4095;-53
2022/08/22 02:28:09;;;;;;;;;;;;;;;;;;1019955;28;4602;-49
2022/08/22 02:28:56;;;;;;;;;;;;;;;;;;1021414;28;3991;-50
2022/08/22 02:29:37;;;;;;;;;;;;;;;;;;1021815;28;4102;-50
2022/08/22 02:30:13;;;;;;;;;;;;;;;;;;1020408;28;3569;-54
2022/08/22 02:30:43;;;;;;;;;;;;;;;;;;1020859;28;4414;-50
2022/08/22 02:31:16;;;;;;;;;;;;;;;;;;1022397;28;3599;-53
2022/08/22 02:31:47;;;;;;;;;;;;;;;;;;1018413;28;4081;-54
2022/08/22 02:32:21;;;;;;;;;;;;;;;;;;1022358;28;3844;-51
2022/08/22 02:32:51;;;;;;;;;;;;;;;;;;1020800;28;3969;-52
2022/08/22 02:33:29;;;;;;;;;;;;;;;;;;1021907;28;3967;-50
2022/08/22 02:34:02;;;;;;;;;;;;;;;;;;1021610;28;2929;-55
2022/08/22 02:34:42;;;;;;;;;;;;;;;;;;1020430;28;3939;-52
2022/08/22 02:35:15;;;;;;;;;;;;;;;;;;1022505;28;2912;-50
2022/08/22 02:35:50;;;;;;;;;;;;;;;;;;1020107;28;4072;-52
2022/08/22 02:36:23;;;;;;;;;;;;;;;;;;1019757;28;4108;-53
2022/08/22 02:37:06;;;;;;;;;;;;;;;;;;1021322;28;3206;-53
2022/08/22 02:38:17;;;;;;;;;;;;;;;;;;1020712;28;4056;-52
2022/08/22 02:38:54;;;;;;;;;;;;;;;;;;1012749;29;4030;-49
2022/08/22 02:39:31;;;;;;;;;;;;;;;;;;1004759;29;4143;-49
2022/08/22 02:40:26;;;;;;;;;;;;;;;;;;1004041;29;4098;-51
2022/08/22 02:41:15;;;;;;;;;;;;;;;;;;1004395;29;3955;-52
2022/08/22 02:42:00;;;;;;;;;;;;;;;;;;1021182;28;4028;-55
2022/08/22 02:42:49;;;;;;;;;;;;;;;;;;1022518;28;3922;-52
2022/08/22 02:43:22;;;;;;;;;;;;;;;;;;1022867;28;1644;-49
2022/08/22 02:43:56;;;;;;;;;;;;;;;;;;1020525;28;3906;-55
2022/08/22 02:44:29;;;;;;;;;;;;;;;;;;1022628;28;4052;-50
2022/08/22 02:45:10;;;;;;;;;;;;;;;;;;1019047;28;3670;-52
2022/08/22 02:45:53;;;;;;;;;;;;;;;;;;1020410;28;3898;-52
2022/08/22 02:46:26;;;;;;;;;;;;;;;;;;1021230;28;3954;-53
2022/08/22 02:47:11;;;;;;;;;;;;;;;;;;1020216;28;3361;-53
2022/08/22 02:47:47;;;;;;;;;;;;;;;;;;1019125;28;3841;-52
2022/08/22 02:48:32;;;;;;;;;;;;;;;;;;1021980;28;3265;-54
2022/08/22 02:49:12;;;;;;;;;;;;;;;;;;1019312;28;3811;-52
2022/08/22 02:49:49;;;;;;;;;;;;;;;;;;1021523;28;3896;-52
2022/08/22 02:50:24;;;;;;;;;;;;;;;;;;1022302;28;2009;-52
2022/08/22 02:50:55;;;;;;;;;;;;;;;;;;1021438;28;4023;-50
2022/08/22 02:51:34;;;;;;;;;;;;;;;;;;1019973;28;4090;-55
2022/08/22 02:52:24;;;;;;;;;;;;;;;;;;1021334;28;3673;-52
2022/08/22 02:53:15;;;;;;;;;;;;;;;;;;1021277;28;3861;-51
2022/08/22 02:53:53;;;;;;;;;;;;;;;;;;1021482;28;4013;-51
2022/08/22 02:54:37;;;;;;;;;;;;;;;;;;1021245;28;3958;-52
2022/08/22 02:55:28;;;;;;;;;;;;;;;;;;1020253;28;3636;-55
2022/08/22 02:56:05;;;;;;;;;;;;;;;;;;1019203;28;4083;-52
2022/08/22 02:56:38;;;;;;;;;;;;;;;;;;1024558;28;3876;-52
2022/08/22 02:57:12;;;;;;;;;;;;;;;;;;1023160;28;3530;-53
2022/08/22 02:57:46;;;;;;;;;;;;;;;;;;1023992;28;3893;-54
2022/08/22 02:58:29;;;;;;;;;;;;;;;;;;1021697;28;3225;-50
2022/08/22 02:59:22;;;;;;;;;;;;;;;;;;1021231;28;3943;-52
2022/08/22 03:00:15;;;;;;;;;;;;;;;;;;1024362;28;3794;-50
2022/08/22 03:00:49;;;;;;;;;;;;;;;;;;1025791;28;3816;-51
2022/08/22 03:01:28;;;;;;;;;;;;;;;;;;1024976;28;2282;-54
2022/08/22 03:02:18;;;;;;;;;;;;;;;;;;1019629;28;3992;-53
2022/08/22 03:02:55;;;;;;;;;;;;;;;;;;1020299;28;4049;-52
2022/08/22 03:03:27;;;;;;;;;;;;;;;;;;1019241;28;3879;-54
2022/08/22 03:04:21;;;;;;;;;;;;;;;;;;1020611;28;3438;-55
2022/08/22 03:04:54;;;;;;;;;;;;;;;;;;1019948;28;3887;-52
2022/08/22 03:05:37;;;;;;;;;;;;;;;;;;1021627;28;3840;-55
2022/08/22 03:06:16;;;;;;;;;;;;;;;;;;1020561;28;3238;-51
2022/08/22 03:07:05;;;;;;;;;;;;;;;;;;1020567;28;4030;-51
2022/08/22 03:07:39;;;;;;;;;;;;;;;;;;1021000;28;3980;-53
2022/08/22 03:08:30;;;;;;;;;;;;;;;;;;1020480;28;3235;-55
2022/08/22 03:09:12;;;;;;;;;;;;;;;;;;1021660;28;3735;-54
2022/08/22 03:09:47;;;;;;;;;;;;;;;;;;1020498;28;3914;-54
2022/08/22 03:10:23;;;;;;;;;;;;;;;;;;1022459;28;2239;-52
2022/08/22 03:10:56;;;;;;;;;;;;;;;;;;1019138;28;4168;-49
2022/08/22 03:11:28;;;;;;;;;;;;;;;;;;1021087;28;4164;-54
2022/08/22 03:12:19;;;;;;;;;;;;;;;;;;1020713;28;2813;-53
2022/08/22 03:12:55;;;;;;;;;;;;;;;;;;1019931;28;3994;-54
2022/08/22 03:13:32;;;;;;;;;;;;;;;;;;1019492;28;4115;-54
2022/08/22 03:14:08;;;;;;;;;;;;;;;;;;1023382;28;3833;-53
2022/08/22 03:14:58;;;;;;;;;;;;;;;;;;1020131;28;4174;-52
2022/08/22 03:15:31;;;;;;;;;;;;;;;;;;1019195;28;3931;-51
2022/08/22 03:16:09;;;;;;;;;;;;;;;;;;1018872;28;3817;-53
2022/08/22 03:16:42;;;;;;;;;;;;;;;;;;1021568;28;3892;-50
2022/08/22 03:17:20;;;;;;;;;;;;;;;;;;1021712;28;3218;-50
2022/08/22 03:17:53;;;;;;;;;;;;;;;;;;1021419;28;3693;-52
2022/08/22 03:18:43;;;;;;;;;;;;;;;;;;1021846;28;3939;-55
2022/08/22 03:19:16;;;;;;;;;;;;;;;;;;1022061;28;3389;-50
2022/08/22 03:19:50;;;;;;;;;;;;;;;;;;1019689;28;4346;-50
2022/08/22 03:20:46;;;;;;;;;;;;;;;;;;1020384;28;4119;-53
2022/08/22 03:21:34;;;;;;;;;;;;;;;;;;1020776;28;4063;-49
2022/08/22 03:22:07;;;;;;;;;;;;;;;;;;1021435;28;3446;-54
2022/08/22 03:22:42;;;;;;;;;;;;;;;;;;1019790;28;3932;-53
2022/08/22 03:23:22;;;;;;;;;;;;;;;;;;1020477;28;3214;-51
2022/08/22 03:23:58;;;;;;;;;;;;;;;;;;1021058;28;3992;-54
2022/08/22 03:24:47;;;;;;;;;;;;;;;;;;1020238;28;4093;-52
2022/08/22 03:25:20;;;;;;;;;;;;;;;;;;1020590;28;3001;-49
2022/08/22 03:25:57;;;;;;;;;;;;;;;;;;1020185;28;3892;-52
2022/08/22 03:26:50;;;;;;;;;;;;;;;;;;1021833;28;3902;-51
2022/08/22 03:27:22;;;;;;;;;;;;;;;;;;1021978;28;4482;-52
2022/08/22 03:27:56;;;;;;;;;;;;;;;;;;1021578;28;3451;-55
2022/08/22 03:28:32;;;;;;;;;;;;;;;;;;1019889;28;4442;-48
2022/08/22 03:29:05;;;;;;;;;;;;;;;;;;1017514;28;3930;-54
2022/08/22 03:29:37;;;;;;;;;;;;;;;;;;1019542;28;3885;-50
2022/08/22 03:30:30;;;;;;;;;;;;;;;;;;1021478;28;3053;-52
2022/08/22 03:31:12;;;;;;;;;;;;;;;;;;1022929;28;3995;-56
2022/08/22 03:32:01;;;;;;;;;;;;;;;;;;1024120;28;3982;-54
2022/08/22 03:32:50;;;;;;;;;;;;;;;;;;1025375;28;3948;-54
2022/08/22 03:33:22;;;;;;;;;;;;;;;;;;1021587;28;3918;-55
2022/08/22 03:34:11;;;;;;;;;;;;;;;;;;1020543;28;2292;-55
2022/08/22 03:34:55;;;;;;;;;;;;;;;;;;1018081;28;3961;-52
2022/08/22 03:35:25;;;;;;;;;;;;;;;;;;1021384;28;4068;-51
2022/08/22 03:35:58;;;;;;;;;;;;;;;;;;1018589;28;3730;-54
2022/08/22 03:36:30;;;;;;;;;;;;;;;;;;1021941;28;4162;-49
2022/08/22 03:37:03;;;;;;;;;;;;;;;;;;1020467;28;3264;-55
2022/08/22 03:37:41;;;;;;;;;;;;;;;;;;1021069;28;3881;-50
2022/08/22 03:38:20;;;;;;;;;;;;;;;;;;1021246;28;3805;-52
2022/08/22 03:39:03;;;;;;;;;;;;;;;;;;1021044;28;3686;-52
2022/08/22 03:39:37;;;;;;;;;;;;;;;;;;1019385;28;4156;-51
2022/08/22 03:40:27;;;;;;;;;;;;;;;;;;1020724;28;3459;-52
2022/08/22 03:41:17;;;;;;;;;;;;;;;;;;1020307;28;3826;-55
2022/08/22 03:42:06;;;;;;;;;;;;;;;;;;1017438;28;4022;-54
2022/08/22 03:42:53;;;;;;;;;;;;;;;;;;1020476;28;3937;-50
2022/08/22 03:43:32;;;;;;;;;;;;;;;;;;1020439;28;3905;-55
2022/08/22 03:44:18;;;;;;;;;;;;;;;;;;1018540;28;3693;-49
2022/08/22 03:45:02;;;;;;;;;;;;;;;;;;1019932;28;3895;-53
2022/08/22 03:45:32;;;;;;;;;;;;;;;;;;1020578;28;4062;-50
2022/08/22 03:46:06;;;;;;;;;;;;;;;;;;1019863;28;3097;-51
2022/08/22 03:46:55;;;;;;;;;;;;;;;;;;1022203;28;4172;-52
2022/08/22 03:47:30;;;;;;;;;;;;;;;;;;1019222;28;4017;-51
2022/08/22 03:48:20;;;;;;;;;;;;;;;;;;1022182;28;1756;-52
2022/08/22 03:49:03;;;;;;;;;;;;;;;;;;1019443;28;5667;-55
2022/08/22 03:49:53;;;;;;;;;;;;;;;;;;1019456;28;3944;-52
2022/08/22 03:50:45;;;;;;;;;;;;;;;;;;1020691;28;4056;-51
2022/08/22 03:51:15;;;;;;;;;;;;;;;;;;1018306;28;3745;-53
2022/08/22 03:51:53;;;;;;;;;;;;;;;;;;1018192;28;4091;-54
2022/08/22 03:53:40;;;;;;;;;;;;;;;;;;1020227;28;4104;-50
2022/08/22 03:54:29;;;;;;;;;;;;;;;;;;1018967;28;4030;-54
2022/08/22 03:55:09;;;;;;;;;;;;;;;;;;1020417;28;3941;-52
2022/08/22 03:55:39;;;;;;;;;;;;;;;;;;1020609;28;3864;-52
2022/08/22 03:56:27;;;;;;;;;;;;;;;;;;1019461;28;3986;-51
2022/08/22 03:57:06;;;;;;;;;;;;;;;;;;1019767;28;3779;-52
2022/08/22 03:57:43;;;;;;;;;;;;;;;;;;1021671;28;3907;-55
2022/08/22 03:58:24;;;;;;;;;;;;;;;;;;1021898;28;3735;-54
2022/08/22 03:58:54;;;;;;;;;;;;;;;;;;1021512;28;3669;-53
2022/08/22 03:59:43;;;;;;;;;;;;;;;;;;1020402;28;3959;-53
2022/08/22 04:00:32;;;;;;;;;;;;;;;;;;1020015;28;3224;-52
2022/08/22 04:01:12;;;;;;;;;;;;;;;;;;1020181;28;3847;-52
2022/08/22 04:02:02;;;;;;;;;;;;;;;;;;1019582;28;4046;-51
2022/08/22 04:02:51;;;;;;;;;;;;;;;;;;1021035;28;3923;-55
2022/08/22 04:03:34;;;;;;;;;;;;;;;;;;1021424;28;4138;-52
2022/08/22 04:04:17;;;;;;;;;;;;;;;;;;1021319;28;3111;-48
2022/08/22 04:04:56;;;;;;;;;;;;;;;;;;1017298;28;6074;-53
2022/08/22 04:05:46;;;;;;;;;;;;;;;;;;1019780;28;4013;-51
2022/08/22 04:06:21;;;;;;;;;;;;;;;;;;1020970;28;2958;-49
2022/08/22 04:07:05;;;;;;;;;;;;;;;;;;1018083;28;4087;-54
2022/08/22 04:07:52;;;;;;;;;;;;;;;;;;1021565;28;4351;-51
2022/08/22 04:08:22;;;;;;;;;;;;;;;;;;1020469;28;3939;-53
2022/08/22 04:08:53;;;;;;;;;;;;;;;;;;1021128;28;2940;-54
2022/08/22 04:09:41;;;;;;;;;;;;;;;;;;1020547;28;3919;-51
2022/08/22 04:10:36;;;;;;;;;;;;;;;;;;1020524;28;3393;-55
2022/08/22 04:11:35;;;;;;;;;;;;;;;;;;1020561;28;4014;-51
2022/08/22 04:12:16;;;;;;;;;;;;;;;;;;1019870;28;3987;-55
2022/08/22 04:13:02;;;;;;;;;;;;;;;;;;1018460;28;4061;-53
2022/08/22 04:13:48;;;;;;;;;;;;;;;;;;1019147;28;3941;-52
2022/08/22 04:14:37;;;;;;;;;;;;;;;;;;1020136;28;4062;-53
2022/08/22 04:15:09;;;;;;;;;;;;;;;;;;1019244;28;3753;-52
2022/08/22 04:15:58;;;;;;;;;;;;;;;;;;1019397;28;3919;-50
2022/08/22 04:16:40;;;;;;;;;;;;;;;;;;1018726;28;4503;-53
2022/08/22 04:17:13;;;;;;;;;;;;;;;;;;1018864;28;3859;-55
2022/08/22 04:17:59;;;;;;;;;;;;;;;;;;1015000;29;4177;-50
2022/08/22 04:18:48;;;;;;;;;;;;;;;;;;1014618;29;4672;-51
2022/08/22 04:19:22;;;;;;;;;;;;;;;;;;1017621;29;3735;-52
2022/08/22 04:20:10;;;;;;;;;;;;;;;;;;1018925;28;3708;-52
2022/08/22 04:21:09;;;;;;;;;;;;;;;;;;1016311;28;4076;-54
2022/08/22 04:21:52;;;;;;;;;;;;;;;;;;1019479;28;3757;-54
2022/08/22 04:22:29;;;;;;;;;;;;;;;;;;1020514;28;3910;-52
2022/08/22 04:23:14;;;;;;;;;;;;;;;;;;1018960;28;3500;-54
2022/08/22 04:23:53;;;;;;;;;;;;;;;;;;1020986;28;3969;-53
2022/08/22 04:24:41;;;;;;;;;;;;;;;;;;1020039;28;3906;-49
2022/08/22 04:25:16;;;;;;;;;;;;;;;;;;1020776;28;3217;-52
2022/08/22 04:25:49;;;;;;;;;;;;;;;;;;1019363;28;3871;-50
2022/08/22 04:26:27;;;;;;;;;;;;;;;;;;1019004;28;3926;-54
2022/08/22 04:27:00;;;;;;;;;;;;;;;;;;1017478;28;3846;-49
2022/08/22 04:27:39;;;;;;;;;;;;;;;;;;1020746;28;4045;-52
2022/08/22 04:28:20;;;;;;;;;;;;;;;;;;1020785;28;2186;-54
2022/08/22 04:28:55;;;;;;;;;;;;;;;;;;1021208;28;3738;-48
2022/08/22 04:29:29;;;;;;;;;;;;;;;;;;1020908;28;4057;-58
2022/08/22 04:30:02;;;;;;;;;;;;;;;;;;1019897;28;3863;-55
2022/08/22 04:30:41;;;;;;;;;;;;;;;;;;1020311;28;4121;-51
2022/08/22 04:31:13;;;;;;;;;;;;;;;;;;1022598;28;3841;-53
2022/08/22 04:31:46;;;;;;;;;;;;;;;;;;1017627;28;4082;-54
2022/08/22 04:32:24;;;;;;;;;;;;;;;;;;1019735;28;3833;-51
2022/08/22 04:33:02;;;;;;;;;;;;;;;;;;1019870;28;3840;-49
2022/08/22 04:33:38;;;;;;;;;;;;;;;;;;1020896;28;4094;-52
2022/08/22 04:34:14;;;;;;;;;;;;;;;;;;1020786;28;4134;-54
2022/08/22 04:34:47;;;;;;;;;;;;;;;;;;1023863;28;4057;-52
2022/08/22 04:35:26;;;;;;;;;;;;;;;;;;1025804;28;3811;-52
2022/08/22 04:36:18;;;;;;;;;;;;;;;;;;1020376;28;3934;-51
2022/08/22 04:36:58;;;;;;;;;;;;;;;;;;1019804;28;4086;-55
2022/08/22 04:37:40;;;;;;;;;;;;;;;;;;1021430;28;3924;-52
2022/08/22 04:38:18;;;;;;;;;;;;;;;;;;1026009;28;3786;-51
2022/08/22 04:39:03;;;;;;;;;;;;;;;;;;1025202;28;4071;-56
2022/08/22 04:39:47;;;;;;;;;;;;;;;;;;1022767;28;4084;-52
2022/08/22 04:40:22;;;;;;;;;;;;;;;;;;1020469;28;3832;-50
2022/08/22 04:40:56;;;;;;;;;;;;;;;;;;1020725;28;3980;-53
2022/08/22 04:41:48;;;;;;;;;;;;;;;;;;1021037;28;3814;-51
2022/08/22 04:42:21;;;;;;;;;;;;;;;;;;1020102;28;3914;-52
2022/08/22 04:42:55;;;;;;;;;;;;;;;;;;1019803;28;4038;-50
2022/08/22 04:43:29;;;;;;;;;;;;;;;;;;1021140;28;3833;-50